sensor_id;sensor_type;location;lat;lon;timestamp;P1;durP1;ratioP1;P2;durP2;ratioP2
10295;SDS011;5193;51.032;6.356;2023-04-08T00:00:15;14.60;;;10.53;;
10295;SDS011;5193;51.032;6.356;2023-04-08T00:02:40;20.40;;;12.00;;
10295;SDS011;5193;51.032;6.356;2023-04-08T00:05:07;17.80;;;11.80;;
10295;SDS011;5193;51.032;6.356;2023-04-08T00:07:32;21.00;;;11.93;;
10295;SDS011;5193;51.032;6.356;2023-04-08T00:09:58;19.73;;;12.27;;
10295;SDS011;5193;51.032;6.356;2023-04-08T00:12:24;26.40;;;11.97;;
10295;SDS011;5193;51.032;6.356;2023-04-08T00:14:49;21.50;;;12.93;;
10295;SDS011;5193;51.032;6.356;2023-04-08T00:17:15;19.43;;;13.10;;
10295;SDS011;5193;51.032;6.356;2023-04-08T00:19:41;19.03;;;12.30;;
10295;SDS011;5193;51.032;6.356;2023-04-08T00:22:06;19.97;;;12.60;;
10295;SDS011;5193;51.032;6.356;2023-04-08T00:24:32;19.90;;;13.97;;
10295;SDS011;5193;51.032;6.356;2023-04-08T00:26:58;21.27;;;12.50;;
10295;SDS011;5193;51.032;6.356;2023-04-08T00:29:23;18.77;;;12.90;;
10295;SDS011;5193;51.032;6.356;2023-04-08T00:31:49;25.13;;;12.63;;
10295;SDS011;5193;51.032;6.356;2023-04-08T00:34:15;20.90;;;12.53;;
10295;SDS011;5193;51.032;6.356;2023-04-08T00:36:41;20.77;;;12.90;;
10295;SDS011;5193;51.032;6.356;2023-04-08T00:39:07;18.50;;;12.83;;
10295;SDS011;5193;51.032;6.356;2023-04-08T00:41:33;18.80;;;12.67;;
10295;SDS011;5193;51.032;6.356;2023-04-08T00:43:59;23.73;;;12.43;;
10295;SDS011;5193;51.032;6.356;2023-04-08T00:46:25;23.17;;;13.43;;
10295;SDS011;5193;51.032;6.356;2023-04-08T00:48:51;25.33;;;13.37;;
10295;SDS011;5193;51.032;6.356;2023-04-08T00:51:18;20.27;;;12.47;;
10295;SDS011;5193;51.032;6.356;2023-04-08T00:53:44;23.80;;;12.40;;
10295;SDS011;5193;51.032;6.356;2023-04-08T00:56:10;22.27;;;12.17;;
10295;SDS011;5193;51.032;6.356;2023-04-08T00:58:37;20.23;;;11.47;;
10295;SDS011;5193;51.032;6.356;2023-04-08T01:01:09;21.63;;;13.17;;
10295;SDS011;5193;51.032;6.356;2023-04-08T01:06:48;26.87;;;12.87;;
10295;SDS011;5193;51.032;6.356;2023-04-08T01:09:20;22.33;;;12.77;;
10295;SDS011;5193;51.032;6.356;2023-04-08T01:11:49;21.53;;;12.43;;
10295;SDS011;5193;51.032;6.356;2023-04-08T01:14:16;23.90;;;12.77;;
10295;SDS011;5193;51.032;6.356;2023-04-08T01:16:45;24.53;;;12.83;;
10295;SDS011;5193;51.032;6.356;2023-04-08T01:19:15;27.83;;;13.57;;
10295;SDS011;5193;51.032;6.356;2023-04-08T01:21:48;27.03;;;14.00;;
10295;SDS011;5193;51.032;6.356;2023-04-08T01:24:28;26.67;;;14.30;;
10295;SDS011;5193;51.032;6.356;2023-04-08T01:26:57;24.03;;;14.40;;
10295;SDS011;5193;51.032;6.356;2023-04-08T01:29:25;20.57;;;12.67;;
10295;SDS011;5193;51.032;6.356;2023-04-08T01:31:53;22.73;;;12.97;;
10295;SDS011;5193;51.032;6.356;2023-04-08T01:34:20;21.53;;;13.67;;
10295;SDS011;5193;51.032;6.356;2023-04-08T01:36:48;23.00;;;14.23;;
10295;SDS011;5193;51.032;6.356;2023-04-08T01:39:14;23.53;;;13.33;;
10295;SDS011;5193;51.032;6.356;2023-04-08T01:41:42;19.37;;;13.47;;
10295;SDS011;5193;51.032;6.356;2023-04-08T01:44:09;21.80;;;13.03;;
10295;SDS011;5193;51.032;6.356;2023-04-08T01:46:35;24.30;;;15.00;;
10295;SDS011;5193;51.032;6.356;2023-04-08T01:49:02;21.07;;;14.03;;
10295;SDS011;5193;51.032;6.356;2023-04-08T01:51:30;26.60;;;14.00;;
10295;SDS011;5193;51.032;6.356;2023-04-08T01:53:57;24.70;;;13.63;;
10295;SDS011;5193;51.032;6.356;2023-04-08T01:56:22;22.37;;;13.73;;
10295;SDS011;5193;51.032;6.356;2023-04-08T01:58:52;26.83;;;12.90;;
10295;SDS011;5193;51.032;6.356;2023-04-08T02:01:21;22.87;;;14.07;;
10295;SDS011;5193;51.032;6.356;2023-04-08T02:03:50;25.17;;;14.10;;
10295;SDS011;5193;51.032;6.356;2023-04-08T02:06:21;23.00;;;14.33;;
10295;SDS011;5193;51.032;6.356;2023-04-08T02:08:47;22.30;;;14.20;;
10295;SDS011;5193;51.032;6.356;2023-04-08T02:11:13;29.77;;;14.33;;
10295;SDS011;5193;51.032;6.356;2023-04-08T02:13:39;21.80;;;13.53;;
10295;SDS011;5193;51.032;6.356;2023-04-08T02:16:08;28.37;;;14.47;;
10295;SDS011;5193;51.032;6.356;2023-04-08T02:18:41;22.50;;;14.60;;
10295;SDS011;5193;51.032;6.356;2023-04-08T02:21:13;26.40;;;15.50;;
10295;SDS011;5193;51.032;6.356;2023-04-08T02:23:40;21.17;;;15.23;;
10295;SDS011;5193;51.032;6.356;2023-04-08T02:26:13;25.40;;;14.37;;
10295;SDS011;5193;51.032;6.356;2023-04-08T02:28:40;25.17;;;14.57;;
10295;SDS011;5193;51.032;6.356;2023-04-08T02:31:10;28.23;;;14.83;;
10295;SDS011;5193;51.032;6.356;2023-04-08T02:33:39;23.47;;;14.53;;
10295;SDS011;5193;51.032;6.356;2023-04-08T02:36:06;27.43;;;14.97;;
10295;SDS011;5193;51.032;6.356;2023-04-08T02:38:33;26.23;;;16.17;;
10295;SDS011;5193;51.032;6.356;2023-04-08T02:40:59;23.93;;;14.93;;
10295;SDS011;5193;51.032;6.356;2023-04-08T02:43:25;25.07;;;15.10;;
10295;SDS011;5193;51.032;6.356;2023-04-08T02:45:55;28.43;;;15.17;;
10295;SDS011;5193;51.032;6.356;2023-04-08T02:48:21;29.90;;;16.27;;
10295;SDS011;5193;51.032;6.356;2023-04-08T02:50:47;24.23;;;14.53;;
10295;SDS011;5193;51.032;6.356;2023-04-08T02:53:12;23.27;;;15.10;;
10295;SDS011;5193;51.032;6.356;2023-04-08T02:55:38;27.90;;;15.07;;
10295;SDS011;5193;51.032;6.356;2023-04-08T02:58:04;24.17;;;14.50;;
10295;SDS011;5193;51.032;6.356;2023-04-08T03:00:29;22.17;;;15.10;;
10295;SDS011;5193;51.032;6.356;2023-04-08T03:02:55;24.43;;;16.00;;
10295;SDS011;5193;51.032;6.356;2023-04-08T03:05:21;23.30;;;15.97;;
10295;SDS011;5193;51.032;6.356;2023-04-08T03:07:46;20.20;;;13.73;;
10295;SDS011;5193;51.032;6.356;2023-04-08T03:10:12;25.37;;;16.90;;
10295;SDS011;5193;51.032;6.356;2023-04-08T03:12:38;24.13;;;15.43;;
10295;SDS011;5193;51.032;6.356;2023-04-08T03:15:03;29.67;;;16.33;;
10295;SDS011;5193;51.032;6.356;2023-04-08T03:17:30;26.37;;;15.57;;
10295;SDS011;5193;51.032;6.356;2023-04-08T03:19:58;26.50;;;16.43;;
10295;SDS011;5193;51.032;6.356;2023-04-08T03:22:24;33.20;;;17.33;;
10295;SDS011;5193;51.032;6.356;2023-04-08T03:24:50;23.93;;;15.97;;
10295;SDS011;5193;51.032;6.356;2023-04-08T03:27:15;25.43;;;16.17;;
10295;SDS011;5193;51.032;6.356;2023-04-08T03:29:41;24.77;;;15.50;;
10295;SDS011;5193;51.032;6.356;2023-04-08T03:32:07;35.77;;;16.83;;
10295;SDS011;5193;51.032;6.356;2023-04-08T03:34:33;28.80;;;16.10;;
10295;SDS011;5193;51.032;6.356;2023-04-08T03:36:59;26.87;;;15.47;;
10295;SDS011;5193;51.032;6.356;2023-04-08T03:39:25;31.87;;;16.00;;
10295;SDS011;5193;51.032;6.356;2023-04-08T03:41:51;31.10;;;16.43;;
10295;SDS011;5193;51.032;6.356;2023-04-08T03:44:17;26.27;;;15.00;;
10295;SDS011;5193;51.032;6.356;2023-04-08T03:46:42;26.00;;;16.17;;
10295;SDS011;5193;51.032;6.356;2023-04-08T03:49:08;28.37;;;15.70;;
10295;SDS011;5193;51.032;6.356;2023-04-08T03:51:34;27.03;;;15.70;;
10295;SDS011;5193;51.032;6.356;2023-04-08T03:53:59;26.17;;;15.63;;
10295;SDS011;5193;51.032;6.356;2023-04-08T03:56:25;31.10;;;15.17;;
10295;SDS011;5193;51.032;6.356;2023-04-08T03:58:50;29.70;;;15.50;;
10295;SDS011;5193;51.032;6.356;2023-04-08T04:01:16;27.00;;;14.87;;
10295;SDS011;5193;51.032;6.356;2023-04-08T04:03:41;29.27;;;15.27;;
10295;SDS011;5193;51.032;6.356;2023-04-08T04:06:07;33.87;;;16.30;;
10295;SDS011;5193;51.032;6.356;2023-04-08T04:08:34;29.13;;;15.90;;
10295;SDS011;5193;51.032;6.356;2023-04-08T04:10:59;27.73;;;15.77;;
10295;SDS011;5193;51.032;6.356;2023-04-08T04:13:25;26.47;;;16.60;;
10295;SDS011;5193;51.032;6.356;2023-04-08T04:15:50;30.00;;;16.80;;
10295;SDS011;5193;51.032;6.356;2023-04-08T04:18:16;34.93;;;16.47;;
10295;SDS011;5193;51.032;6.356;2023-04-08T04:20:42;31.00;;;16.80;;
10295;SDS011;5193;51.032;6.356;2023-04-08T04:23:08;30.73;;;16.60;;
10295;SDS011;5193;51.032;6.356;2023-04-08T04:25:34;30.63;;;16.47;;
10295;SDS011;5193;51.032;6.356;2023-04-08T04:27:59;27.70;;;15.97;;
10295;SDS011;5193;51.032;6.356;2023-04-08T04:30:26;37.10;;;18.17;;
10295;SDS011;5193;51.032;6.356;2023-04-08T04:32:52;29.40;;;17.47;;
10295;SDS011;5193;51.032;6.356;2023-04-08T04:35:18;31.50;;;18.50;;
10295;SDS011;5193;51.032;6.356;2023-04-08T04:37:43;36.23;;;19.57;;
10295;SDS011;5193;51.032;6.356;2023-04-08T04:40:09;34.90;;;18.40;;
10295;SDS011;5193;51.032;6.356;2023-04-08T04:42:35;32.17;;;18.40;;
10295;SDS011;5193;51.032;6.356;2023-04-08T04:45:00;33.17;;;17.73;;
10295;SDS011;5193;51.032;6.356;2023-04-08T04:47:26;37.70;;;19.60;;
10295;SDS011;5193;51.032;6.356;2023-04-08T04:49:52;38.87;;;19.23;;
10295;SDS011;5193;51.032;6.356;2023-04-08T04:52:17;32.27;;;18.47;;
10295;SDS011;5193;51.032;6.356;2023-04-08T04:54:43;34.13;;;18.87;;
10295;SDS011;5193;51.032;6.356;2023-04-08T04:57:08;36.30;;;19.37;;
10295;SDS011;5193;51.032;6.356;2023-04-08T04:59:35;37.47;;;18.50;;
10295;SDS011;5193;51.032;6.356;2023-04-08T05:02:01;37.07;;;18.67;;
10295;SDS011;5193;51.032;6.356;2023-04-08T05:04:27;32.53;;;18.47;;
10295;SDS011;5193;51.032;6.356;2023-04-08T05:06:52;38.63;;;19.47;;
10295;SDS011;5193;51.032;6.356;2023-04-08T05:09:18;37.37;;;19.50;;
10295;SDS011;5193;51.032;6.356;2023-04-08T05:11:44;38.07;;;19.07;;
10295;SDS011;5193;51.032;6.356;2023-04-08T05:14:10;37.80;;;18.83;;
10295;SDS011;5193;51.032;6.356;2023-04-08T05:16:35;32.50;;;19.23;;
10295;SDS011;5193;51.032;6.356;2023-04-08T05:19:02;41.97;;;19.33;;
10295;SDS011;5193;51.032;6.356;2023-04-08T05:21:28;45.90;;;19.73;;
10295;SDS011;5193;51.032;6.356;2023-04-08T05:23:54;39.33;;;19.93;;
10295;SDS011;5193;51.032;6.356;2023-04-08T05:26:20;41.23;;;19.87;;
10295;SDS011;5193;51.032;6.356;2023-04-08T05:28:46;50.97;;;19.73;;
10295;SDS011;5193;51.032;6.356;2023-04-08T05:31:15;44.27;;;20.83;;
10295;SDS011;5193;51.032;6.356;2023-04-08T05:33:42;40.90;;;20.97;;
10295;SDS011;5193;51.032;6.356;2023-04-08T05:36:07;41.97;;;19.87;;
10295;SDS011;5193;51.032;6.356;2023-04-08T05:38:34;41.27;;;19.60;;
10295;SDS011;5193;51.032;6.356;2023-04-08T05:41:00;46.30;;;20.37;;
10295;SDS011;5193;51.032;6.356;2023-04-08T05:43:25;41.33;;;20.37;;
10295;SDS011;5193;51.032;6.356;2023-04-08T05:45:51;45.63;;;20.80;;
10295;SDS011;5193;51.032;6.356;2023-04-08T05:48:16;41.33;;;20.00;;
10295;SDS011;5193;51.032;6.356;2023-04-08T05:50:42;37.00;;;20.07;;
10295;SDS011;5193;51.032;6.356;2023-04-08T05:53:08;40.43;;;20.93;;
10295;SDS011;5193;51.032;6.356;2023-04-08T05:55:34;37.00;;;20.13;;
10295;SDS011;5193;51.032;6.356;2023-04-08T05:57:59;38.70;;;18.80;;
10295;SDS011;5193;51.032;6.356;2023-04-08T06:00:25;41.70;;;20.97;;
10295;SDS011;5193;51.032;6.356;2023-04-08T06:02:51;43.03;;;19.10;;
10295;SDS011;5193;51.032;6.356;2023-04-08T06:05:17;42.00;;;19.97;;
10295;SDS011;5193;51.032;6.356;2023-04-08T06:07:43;46.40;;;21.57;;
10295;SDS011;5193;51.032;6.356;2023-04-08T06:10:09;40.70;;;20.57;;
10295;SDS011;5193;51.032;6.356;2023-04-08T06:12:35;46.10;;;21.63;;
10295;SDS011;5193;51.032;6.356;2023-04-08T06:15:03;45.13;;;20.23;;
10295;SDS011;5193;51.032;6.356;2023-04-08T06:17:30;39.17;;;19.73;;
10295;SDS011;5193;51.032;6.356;2023-04-08T06:19:55;38.57;;;20.10;;
10295;SDS011;5193;51.032;6.356;2023-04-08T06:22:21;38.70;;;20.77;;
10295;SDS011;5193;51.032;6.356;2023-04-08T06:24:47;40.07;;;21.23;;
10295;SDS011;5193;51.032;6.356;2023-04-08T06:27:12;41.03;;;20.63;;
10295;SDS011;5193;51.032;6.356;2023-04-08T06:29:38;47.97;;;22.40;;
10295;SDS011;5193;51.032;6.356;2023-04-08T06:32:05;42.30;;;21.57;;
10295;SDS011;5193;51.032;6.356;2023-04-08T06:34:30;49.93;;;23.67;;
10295;SDS011;5193;51.032;6.356;2023-04-08T06:36:56;55.87;;;25.50;;
10295;SDS011;5193;51.032;6.356;2023-04-08T06:39:22;57.07;;;26.80;;
10295;SDS011;5193;51.032;6.356;2023-04-08T06:41:48;53.47;;;25.83;;
10295;SDS011;5193;51.032;6.356;2023-04-08T06:44:13;55.70;;;25.37;;
10295;SDS011;5193;51.032;6.356;2023-04-08T06:46:39;51.73;;;25.00;;
10295;SDS011;5193;51.032;6.356;2023-04-08T06:49:05;62.07;;;27.67;;
10295;SDS011;5193;51.032;6.356;2023-04-08T06:51:31;59.70;;;27.60;;
10295;SDS011;5193;51.032;6.356;2023-04-08T06:53:57;65.37;;;31.33;;
10295;SDS011;5193;51.032;6.356;2023-04-08T06:56:22;60.00;;;30.17;;
10295;SDS011;5193;51.032;6.356;2023-04-08T06:58:50;58.80;;;30.43;;
10295;SDS011;5193;51.032;6.356;2023-04-08T07:01:16;60.27;;;30.50;;
10295;SDS011;5193;51.032;6.356;2023-04-08T07:03:42;59.90;;;32.80;;
10295;SDS011;5193;51.032;6.356;2023-04-08T07:06:07;58.23;;;30.17;;
10295;SDS011;5193;51.032;6.356;2023-04-08T07:08:33;55.13;;;31.00;;
10295;SDS011;5193;51.032;6.356;2023-04-08T07:11:00;54.73;;;30.43;;
10295;SDS011;5193;51.032;6.356;2023-04-08T07:13:26;59.77;;;31.07;;
10295;SDS011;5193;51.032;6.356;2023-04-08T07:15:51;52.47;;;29.07;;
10295;SDS011;5193;51.032;6.356;2023-04-08T07:18:17;51.93;;;28.57;;
10295;SDS011;5193;51.032;6.356;2023-04-08T07:20:43;49.57;;;26.00;;
10295;SDS011;5193;51.032;6.356;2023-04-08T07:23:08;48.10;;;25.57;;
10295;SDS011;5193;51.032;6.356;2023-04-08T07:25:35;48.50;;;26.67;;
10295;SDS011;5193;51.032;6.356;2023-04-08T07:28:00;58.80;;;29.73;;
10295;SDS011;5193;51.032;6.356;2023-04-08T07:30:26;52.53;;;27.67;;
10295;SDS011;5193;51.032;6.356;2023-04-08T07:32:52;55.33;;;28.47;;
10295;SDS011;5193;51.032;6.356;2023-04-08T07:35:19;56.70;;;29.47;;
10295;SDS011;5193;51.032;6.356;2023-04-08T07:37:48;49.67;;;25.87;;
10295;SDS011;5193;51.032;6.356;2023-04-08T07:40:15;51.17;;;27.80;;
10295;SDS011;5193;51.032;6.356;2023-04-08T07:42:41;47.67;;;25.40;;
10295;SDS011;5193;51.032;6.356;2023-04-08T07:45:07;51.73;;;29.10;;
10295;SDS011;5193;51.032;6.356;2023-04-08T07:47:33;49.13;;;26.87;;
10295;SDS011;5193;51.032;6.356;2023-04-08T07:49:58;45.87;;;26.13;;
10295;SDS011;5193;51.032;6.356;2023-04-08T07:52:24;54.17;;;28.50;;
10295;SDS011;5193;51.032;6.356;2023-04-08T07:54:50;51.97;;;27.50;;
10295;SDS011;5193;51.032;6.356;2023-04-08T07:57:15;52.30;;;27.60;;
10295;SDS011;5193;51.032;6.356;2023-04-08T07:59:41;49.30;;;26.87;;
10295;SDS011;5193;51.032;6.356;2023-04-08T08:02:06;49.80;;;27.77;;
10295;SDS011;5193;51.032;6.356;2023-04-08T08:04:32;44.67;;;25.60;;
10295;SDS011;5193;51.032;6.356;2023-04-08T08:06:58;43.57;;;24.70;;
10295;SDS011;5193;51.032;6.356;2023-04-08T08:09:23;44.03;;;24.20;;
10295;SDS011;5193;51.032;6.356;2023-04-08T08:11:49;41.10;;;23.77;;
10295;SDS011;5193;51.032;6.356;2023-04-08T08:14:15;40.37;;;24.97;;
10295;SDS011;5193;51.032;6.356;2023-04-08T08:16:40;41.73;;;24.33;;
10295;SDS011;5193;51.032;6.356;2023-04-08T08:19:06;45.20;;;25.97;;
10295;SDS011;5193;51.032;6.356;2023-04-08T08:21:35;41.77;;;25.50;;
10295;SDS011;5193;51.032;6.356;2023-04-08T08:24:01;46.47;;;25.83;;
10295;SDS011;5193;51.032;6.356;2023-04-08T08:26:27;46.50;;;28.13;;
10295;SDS011;5193;51.032;6.356;2023-04-08T08:28:53;45.20;;;26.77;;
10295;SDS011;5193;51.032;6.356;2023-04-08T08:31:18;41.60;;;25.83;;
10295;SDS011;5193;51.032;6.356;2023-04-08T08:33:44;46.73;;;27.33;;
10295;SDS011;5193;51.032;6.356;2023-04-08T08:36:10;43.87;;;26.63;;
10295;SDS011;5193;51.032;6.356;2023-04-08T08:38:37;42.30;;;27.10;;
10295;SDS011;5193;51.032;6.356;2023-04-08T08:41:03;42.83;;;25.33;;
10295;SDS011;5193;51.032;6.356;2023-04-08T08:43:29;43.77;;;25.70;;
10295;SDS011;5193;51.032;6.356;2023-04-08T08:45:58;44.17;;;26.37;;
10295;SDS011;5193;51.032;6.356;2023-04-08T08:48:24;40.20;;;24.43;;
10295;SDS011;5193;51.032;6.356;2023-04-08T08:50:49;41.90;;;25.57;;
10295;SDS011;5193;51.032;6.356;2023-04-08T08:53:15;43.17;;;26.57;;
10295;SDS011;5193;51.032;6.356;2023-04-08T08:55:41;42.30;;;25.97;;
10295;SDS011;5193;51.032;6.356;2023-04-08T08:58:07;44.03;;;27.53;;
10295;SDS011;5193;51.032;6.356;2023-04-08T09:03:15;41.10;;;26.67;;
10295;SDS011;5193;51.032;6.356;2023-04-08T09:05:58;43.53;;;26.80;;
10295;SDS011;5193;51.032;6.356;2023-04-08T09:10:53;45.70;;;27.53;;
10295;SDS011;5193;51.032;6.356;2023-04-08T09:13:20;42.70;;;27.90;;
10295;SDS011;5193;51.032;6.356;2023-04-08T09:16:00;49.90;;;29.37;;
10295;SDS011;5193;51.032;6.356;2023-04-08T09:18:31;44.70;;;27.67;;
10295;SDS011;5193;51.032;6.356;2023-04-08T09:21:01;44.60;;;27.40;;
10295;SDS011;5193;51.032;6.356;2023-04-08T09:28:35;45.90;;;27.90;;
10295;SDS011;5193;51.032;6.356;2023-04-08T09:31:08;44.63;;;27.90;;
10295;SDS011;5193;51.032;6.356;2023-04-08T09:33:45;48.03;;;29.50;;
10295;SDS011;5193;51.032;6.356;2023-04-08T09:36:12;47.23;;;29.23;;
10295;SDS011;5193;51.032;6.356;2023-04-08T09:38:38;46.50;;;30.03;;
10295;SDS011;5193;51.032;6.356;2023-04-08T09:41:05;45.53;;;29.67;;
10295;SDS011;5193;51.032;6.356;2023-04-08T09:43:35;45.50;;;29.73;;
10295;SDS011;5193;51.032;6.356;2023-04-08T09:46:15;41.17;;;27.60;;
10295;SDS011;5193;51.032;6.356;2023-04-08T09:48:49;42.23;;;29.23;;
10295;SDS011;5193;51.032;6.356;2023-04-08T09:51:25;38.97;;;27.40;;
10295;SDS011;5193;51.032;6.356;2023-04-08T09:54:01;43.43;;;28.70;;
10295;SDS011;5193;51.032;6.356;2023-04-08T09:56:38;40.57;;;27.27;;
10295;SDS011;5193;51.032;6.356;2023-04-08T09:59:09;39.80;;;28.33;;
10295;SDS011;5193;51.032;6.356;2023-04-08T10:01:38;39.77;;;28.70;;
10295;SDS011;5193;51.032;6.356;2023-04-08T10:04:15;41.77;;;27.97;;
10295;SDS011;5193;51.032;6.356;2023-04-08T10:06:44;43.77;;;28.43;;
10295;SDS011;5193;51.032;6.356;2023-04-08T10:09:19;39.23;;;26.60;;
10295;SDS011;5193;51.032;6.356;2023-04-08T10:11:46;39.87;;;27.33;;
10295;SDS011;5193;51.032;6.356;2023-04-08T10:14:12;38.43;;;27.13;;
10295;SDS011;5193;51.032;6.356;2023-04-08T10:16:38;36.97;;;26.43;;
10295;SDS011;5193;51.032;6.356;2023-04-08T10:19:10;36.43;;;27.10;;
10295;SDS011;5193;51.032;6.356;2023-04-08T10:27:40;39.57;;;27.27;;
10295;SDS011;5193;51.032;6.356;2023-04-08T10:32:51;37.03;;;26.47;;
10295;SDS011;5193;51.032;6.356;2023-04-08T10:35:30;34.60;;;26.57;;
10295;SDS011;5193;51.032;6.356;2023-04-08T10:37:59;35.77;;;26.60;;
10295;SDS011;5193;51.032;6.356;2023-04-08T10:40:25;39.33;;;29.83;;
10295;SDS011;5193;51.032;6.356;2023-04-08T10:42:54;39.80;;;28.93;;
10295;SDS011;5193;51.032;6.356;2023-04-08T10:45:23;37.53;;;28.43;;
10295;SDS011;5193;51.032;6.356;2023-04-08T10:47:50;38.27;;;26.67;;
10295;SDS011;5193;51.032;6.356;2023-04-08T10:50:16;36.07;;;27.50;;
10295;SDS011;5193;51.032;6.356;2023-04-08T10:52:46;37.20;;;26.40;;
10295;SDS011;5193;51.032;6.356;2023-04-08T10:55:13;37.03;;;27.70;;
10295;SDS011;5193;51.032;6.356;2023-04-08T10:57:38;36.77;;;28.33;;
10295;SDS011;5193;51.032;6.356;2023-04-08T11:00:08;35.03;;;25.90;;
10295;SDS011;5193;51.032;6.356;2023-04-08T11:02:36;34.83;;;27.57;;
10295;SDS011;5193;51.032;6.356;2023-04-08T11:05:02;34.53;;;24.50;;
10295;SDS011;5193;51.032;6.356;2023-04-08T11:07:28;31.53;;;23.67;;
10295;SDS011;5193;51.032;6.356;2023-04-08T11:09:54;31.80;;;23.10;;
10295;SDS011;5193;51.032;6.356;2023-04-08T11:12:20;28.93;;;21.60;;
10295;SDS011;5193;51.032;6.356;2023-04-08T11:14:46;28.93;;;22.57;;
10295;SDS011;5193;51.032;6.356;2023-04-08T11:17:14;30.10;;;21.63;;
10295;SDS011;5193;51.032;6.356;2023-04-08T11:19:40;34.60;;;22.27;;
10295;SDS011;5193;51.032;6.356;2023-04-08T11:22:06;23.93;;;18.60;;
10295;SDS011;5193;51.032;6.356;2023-04-08T11:24:33;21.43;;;17.30;;
10295;SDS011;5193;51.032;6.356;2023-04-08T11:27:01;23.27;;;16.13;;
10295;SDS011;5193;51.032;6.356;2023-04-08T11:29:28;19.77;;;14.80;;
10295;SDS011;5193;51.032;6.356;2023-04-08T11:31:54;22.10;;;16.30;;
10295;SDS011;5193;51.032;6.356;2023-04-08T11:34:21;23.07;;;15.90;;
10295;SDS011;5193;51.032;6.356;2023-04-08T11:36:48;16.97;;;14.10;;
10295;SDS011;5193;51.032;6.356;2023-04-08T11:39:14;20.00;;;15.20;;
10295;SDS011;5193;51.032;6.356;2023-04-08T11:41:40;20.33;;;14.77;;
10295;SDS011;5193;51.032;6.356;2023-04-08T11:44:06;16.20;;;13.97;;
10295;SDS011;5193;51.032;6.356;2023-04-08T11:46:32;17.47;;;14.37;;
10295;SDS011;5193;51.032;6.356;2023-04-08T11:49:02;20.53;;;15.57;;
10295;SDS011;5193;51.032;6.356;2023-04-08T11:51:29;17.33;;;14.23;;
10295;SDS011;5193;51.032;6.356;2023-04-08T11:53:56;16.37;;;14.00;;
10295;SDS011;5193;51.032;6.356;2023-04-08T11:56:22;18.00;;;14.67;;
10295;SDS011;5193;51.032;6.356;2023-04-08T11:58:48;19.83;;;14.40;;
10295;SDS011;5193;51.032;6.356;2023-04-08T12:01:14;17.00;;;13.70;;
10295;SDS011;5193;51.032;6.356;2023-04-08T12:03:59;22.37;;;17.37;;
10295;SDS011;5193;51.032;6.356;2023-04-08T12:06:26;15.70;;;13.17;;
10295;SDS011;5193;51.032;6.356;2023-04-08T12:08:53;15.03;;;12.13;;
10295;SDS011;5193;51.032;6.356;2023-04-08T12:11:19;17.23;;;13.47;;
10295;SDS011;5193;51.032;6.356;2023-04-08T12:13:45;16.53;;;13.90;;
10295;SDS011;5193;51.032;6.356;2023-04-08T12:16:13;16.00;;;13.30;;
10295;SDS011;5193;51.032;6.356;2023-04-08T12:18:39;17.77;;;14.17;;
10295;SDS011;5193;51.032;6.356;2023-04-08T12:21:04;16.40;;;12.73;;
10295;SDS011;5193;51.032;6.356;2023-04-08T12:23:30;17.50;;;12.70;;
10295;SDS011;5193;51.032;6.356;2023-04-08T12:25:56;14.80;;;12.00;;
10295;SDS011;5193;51.032;6.356;2023-04-08T12:28:22;16.67;;;12.30;;
10295;SDS011;5193;51.032;6.356;2023-04-08T12:30:47;17.17;;;13.17;;
10295;SDS011;5193;51.032;6.356;2023-04-08T12:33:13;16.73;;;13.33;;
10295;SDS011;5193;51.032;6.356;2023-04-08T12:35:38;16.23;;;12.03;;
10295;SDS011;5193;51.032;6.356;2023-04-08T12:38:04;14.37;;;11.33;;
10295;SDS011;5193;51.032;6.356;2023-04-08T12:40:30;12.93;;;10.93;;
10295;SDS011;5193;51.032;6.356;2023-04-08T12:42:55;14.07;;;11.93;;
10295;SDS011;5193;51.032;6.356;2023-04-08T12:45:21;12.70;;;11.07;;
10295;SDS011;5193;51.032;6.356;2023-04-08T12:47:46;12.60;;;10.80;;
10295;SDS011;5193;51.032;6.356;2023-04-08T12:50:12;15.17;;;10.90;;
10295;SDS011;5193;51.032;6.356;2023-04-08T12:52:39;13.23;;;11.37;;
10295;SDS011;5193;51.032;6.356;2023-04-08T12:55:04;14.40;;;11.40;;
10295;SDS011;5193;51.032;6.356;2023-04-08T12:57:30;16.17;;;12.07;;
10295;SDS011;5193;51.032;6.356;2023-04-08T12:59:56;13.33;;;11.70;;
10295;SDS011;5193;51.032;6.356;2023-04-08T13:02:22;14.90;;;12.53;;
10295;SDS011;5193;51.032;6.356;2023-04-08T13:04:49;14.97;;;12.50;;
10295;SDS011;5193;51.032;6.356;2023-04-08T13:07:17;16.70;;;11.90;;
10295;SDS011;5193;51.032;6.356;2023-04-08T13:09:42;16.97;;;11.80;;
10295;SDS011;5193;51.032;6.356;2023-04-08T13:12:08;16.67;;;12.63;;
10295;SDS011;5193;51.032;6.356;2023-04-08T13:14:36;18.67;;;12.70;;
10295;SDS011;5193;51.032;6.356;2023-04-08T13:17:02;13.90;;;11.53;;
10295;SDS011;5193;51.032;6.356;2023-04-08T13:19:28;14.33;;;10.73;;
10295;SDS011;5193;51.032;6.356;2023-04-08T13:21:53;12.33;;;10.37;;
10295;SDS011;5193;51.032;6.356;2023-04-08T13:24:19;11.97;;;10.43;;
10295;SDS011;5193;51.032;6.356;2023-04-08T13:26:44;13.30;;;10.60;;
10295;SDS011;5193;51.032;6.356;2023-04-08T13:29:10;13.77;;;10.50;;
10295;SDS011;5193;51.032;6.356;2023-04-08T13:31:35;12.73;;;9.87;;
10295;SDS011;5193;51.032;6.356;2023-04-08T13:34:01;11.07;;;8.07;;
10295;SDS011;5193;51.032;6.356;2023-04-08T13:36:27;11.00;;;8.73;;
10295;SDS011;5193;51.032;6.356;2023-04-08T13:38:52;9.10;;;7.57;;
10295;SDS011;5193;51.032;6.356;2023-04-08T13:41:18;9.23;;;7.83;;
10295;SDS011;5193;51.032;6.356;2023-04-08T13:43:45;10.53;;;8.70;;
10295;SDS011;5193;51.032;6.356;2023-04-08T13:46:11;10.70;;;9.23;;
10295;SDS011;5193;51.032;6.356;2023-04-08T13:48:36;10.60;;;9.50;;
10295;SDS011;5193;51.032;6.356;2023-04-08T13:51:02;11.93;;;10.00;;
10295;SDS011;5193;51.032;6.356;2023-04-08T13:53:27;10.77;;;9.17;;
10295;SDS011;5193;51.032;6.356;2023-04-08T13:55:53;11.90;;;10.27;;
10295;SDS011;5193;51.032;6.356;2023-04-08T13:58:20;11.63;;;9.17;;
10295;SDS011;5193;51.032;6.356;2023-04-08T14:00:46;10.93;;;9.83;;
10295;SDS011;5193;51.032;6.356;2023-04-08T14:03:11;10.77;;;9.67;;
10295;SDS011;5193;51.032;6.356;2023-04-08T14:05:37;10.57;;;9.07;;
10295;SDS011;5193;51.032;6.356;2023-04-08T14:08:03;10.90;;;9.20;;
10295;SDS011;5193;51.032;6.356;2023-04-08T14:10:28;10.20;;;8.87;;
10295;SDS011;5193;51.032;6.356;2023-04-08T14:12:54;14.43;;;9.77;;
10295;SDS011;5193;51.032;6.356;2023-04-08T14:15:19;11.57;;;9.30;;
10295;SDS011;5193;51.032;6.356;2023-04-08T14:17:45;13.37;;;9.33;;
10295;SDS011;5193;51.032;6.356;2023-04-08T14:20:11;11.43;;;8.90;;
10295;SDS011;5193;51.032;6.356;2023-04-08T14:22:36;9.43;;;7.57;;
10295;SDS011;5193;51.032;6.356;2023-04-08T14:25:02;9.57;;;8.30;;
10295;SDS011;5193;51.032;6.356;2023-04-08T14:27:28;9.47;;;8.30;;
10295;SDS011;5193;51.032;6.356;2023-04-08T14:29:53;10.43;;;9.10;;
10295;SDS011;5193;51.032;6.356;2023-04-08T14:32:19;11.77;;;9.70;;
10295;SDS011;5193;51.032;6.356;2023-04-08T14:34:45;11.67;;;9.97;;
10295;SDS011;5193;51.032;6.356;2023-04-08T14:37:10;10.70;;;9.60;;
10295;SDS011;5193;51.032;6.356;2023-04-08T14:39:36;11.23;;;9.57;;
10295;SDS011;5193;51.032;6.356;2023-04-08T14:42:01;11.30;;;9.20;;
10295;SDS011;5193;51.032;6.356;2023-04-08T14:44:27;12.10;;;8.50;;
10295;SDS011;5193;51.032;6.356;2023-04-08T14:46:52;12.57;;;9.40;;
10295;SDS011;5193;51.032;6.356;2023-04-08T14:49:18;8.33;;;7.33;;
10295;SDS011;5193;51.032;6.356;2023-04-08T14:51:43;7.90;;;6.97;;
10295;SDS011;5193;51.032;6.356;2023-04-08T14:54:09;7.80;;;6.97;;